Time;durP1;ratioP1;P1;durP2;ratioP2;P2;SDS_P1;SDS_P2;PMS_P1;PMS_P2;Temp;Humidity;BMP_temperature;BMP_pressure;BME280_temperature;BME280_humidity;BME280_pressure;Samples;Min_cycle;Max_cycle;Signal;HPM_P1;HPM_P2
2022/04/22 00:00:05;;;;;;;;;38.20;31.60;;;;;14.50;48.73;98254.72;6312674;27;97152;-75
2022/04/22 00:03:09;;;;;;;;;45.60;37.00;;;;;14.34;48.58;98245.63;6293776;27;98391;-76
2022/04/22 00:06:13;;;;;;;;;42.20;34.80;;;;;14.11;48.38;98216.19;6282579;27;99855;-76
2022/04/22 00:09:17;;;;;;;;;43.00;36.00;;;;;14.39;48.34;98237.56;6324806;27;97328;-73
2022/04/22 00:12:21;;;;;;;;;42.20;35.20;;;;;14.42;48.57;98237.03;6341383;27;97536;-74
2022/04/22 00:15:24;;;;;;;;;39.60;32.40;;;;;14.46;48.96;98226.50;6306715;27;96645;-75
2022/04/22 00:18:27;;;;;;;;;42.00;35.00;;;;;14.44;49.10;98231.34;6342367;27;97141;-75
2022/04/22 00:21:31;;;;;;;;;41.40;34.60;;;;;14.46;48.85;98226.50;6342750;27;96462;-75
2022/04/22 00:24:35;;;;;;;;;38.00;33.00;;;;;14.44;48.75;98221.31;6304634;27;97090;-74
2022/04/22 00:27:41;;;;;;;;;39.20;33.00;;;;;14.42;48.71;98209.09;6313677;27;99456;-75
2022/04/22 00:30:44;;;;;;;;;43.00;34.00;;;;;14.49;49.22;98215.09;6310473;27;96813;-76
2022/04/22 00:33:48;;;;;;;;;41.25;35.00;;;;;14.49;49.28;98209.69;6297781;27;98381;-74
2022/04/22 00:36:51;;;;;;;;;43.00;34.20;;;;;14.49;48.99;98207.78;6320450;27;97633;-74
2022/04/22 00:39:56;;;;;;;;;45.00;35.00;;;;;14.33;48.60;98185.16;6322200;27;98711;-75
2022/04/22 00:42:59;;;;;;;;;45.00;33.00;;;;;14.38;48.95;98208.81;6322026;27;97260;-74
2022/04/22 00:46:02;;;;;;;;;38.80;33.80;;;;;14.36;48.78;98204.69;6323172;27;96370;-74
2022/04/22 00:49:06;;;;;;;;;43.20;33.80;;;;;14.31;48.81;98208.22;6341757;27;97522;-76
2022/04/22 00:52:11;;;;;;;;;37.25;32.50;;;;;14.28;48.58;98198.69;6341262;27;96452;-75
2022/04/22 00:55:15;;;;;;;;;41.25;32.00;;;;;14.29;48.61;98202.22;6340872;27;98277;-73
2022/04/22 00:58:19;;;;;;;;;38.60;32.00;;;;;14.28;48.70;98198.69;6340501;27;97873;-74
2022/04/22 01:01:22;;;;;;;;;39.25;32.00;;;;;14.30;48.62;98190.31;6313194;27;97057;-75
2022/04/22 01:11:09;;;;;;;;;38.50;32.00;;;;;14.25;48.83;98188.38;6297559;27;97916;-73
2022/04/22 01:14:13;;;;;;;;;35.50;32.00;;;;;13.20;48.82;98023.22;6321983;27;96449;-76
2022/04/22 01:17:16;;;;;;;;;37.40;32.00;;;;;14.21;49.07;98248.81;6338807;27;98521;-75
2022/04/22 01:20:19;;;;;;;;;40.20;33.00;;;;;14.29;49.32;98194.91;6316459;27;98101;-74
2022/04/22 01:23:24;;;;;;;;;40.20;31.60;;;;;14.30;49.34;98203.84;6322198;27;97564;-74
2022/04/22 01:26:28;;;;;;;;;38.00;30.00;;;;;14.31;49.31;98203.59;6340354;27;96968;-74
2022/04/22 01:29:31;;;;;;;;;39.00;32.00;;;;;14.31;49.39;98208.22;6336300;27;97438;-74
2022/04/22 01:32:35;;;;;;;;;37.40;33.00;;;;;13.79;49.26;98113.28;6321698;27;97603;-75
2022/04/22 01:35:38;;;;;;;;;41.80;32.00;;;;;14.32;49.08;98198.97;6340868;27;97081;-76
2022/04/22 01:38:43;;;;;;;;;36.80;31.40;;;;;14.30;49.44;98187.59;6339345;27;96627;-74
2022/04/22 01:41:46;;;;;;;;;39.00;33.00;;;;;14.30;49.39;98187.59;6330159;27;98135;-75
2022/04/22 01:44:50;;;;;;;;;43.50;36.00;;;;;14.33;49.47;98189.75;6321590;27;98707;-74
2022/04/22 01:47:53;;;;;;;;;44.20;35.00;;;;;14.05;49.43;98136.75;6315784;27;96810;-75
2022/04/22 01:50:56;;;;;;;;;43.20;35.00;;;;;14.40;49.32;98186.84;6340519;27;97157;-74
2022/04/22 01:54:01;;;;;;;;;44.60;35.00;;;;;14.41;49.18;98186.59;6339759;27;97442;-75
2022/04/22 01:57:05;;;;;;;;;42.00;33.40;;;;;14.42;49.44;98181.97;6278678;27;96887;-74
2022/04/22 02:00:10;;;;;;;;;42.25;34.50;;;;;14.41;49.70;98183.06;6297824;27;98417;-75
2022/04/22 02:03:13;;;;;;;;;37.50;30.50;;;;;14.41;49.72;98180.38;6280815;27;99421;-74
2022/04/22 02:06:17;;;;;;;;;41.00;33.40;;;;;14.36;49.44;98167.59;6320654;27;98306;-75
2022/04/22 02:09:21;;;;;;;;;43.60;34.80;;;;;14.42;49.39;98176.53;6321304;27;97568;-75
2022/04/22 02:12:25;;;;;;;;;41.40;32.60;;;;;14.43;49.54;98176.28;6312938;27;96680;-75
2022/04/22 02:15:28;;;;;;;;;43.40;35.00;;;;;14.41;49.31;98170.34;6285187;27;98401;-76
2022/04/22 02:18:36;;;;;;;;;41.00;34.00;;;;;14.36;49.53;98159.47;6328513;27;97506;-75
2022/04/22 02:21:40;;;;;;;;;42.80;35.00;;;;;14.39;49.32;98171.66;6308537;27;97275;-74
2022/04/22 02:24:44;;;;;;;;;45.00;36.00;;;;;14.40;49.39;98170.59;6292358;27;98497;-74
2022/04/22 02:31:10;;;;;;;;;40.00;33.00;;;;;14.36;49.74;98153.19;6296919;27;97015;-75
2022/04/22 02:34:14;;;;;;;;;41.80;33.80;;;;;14.36;49.79;98159.47;6319835;27;97941;-75
2022/04/22 02:37:17;;;;;;;;;40.50;33.50;;;;;14.38;49.81;98157.28;6329378;27;96892;-74
2022/04/22 02:47:05;;;;;;;;;39.40;33.00;;;;;14.43;49.97;98151.88;6315455;27;97040;-76
2022/04/22 02:50:09;;;;;;;;;44.20;35.20;;;;;14.44;49.95;98153.53;6319825;27;97589;-74
2022/04/22 02:53:13;;;;;;;;;43.25;35.00;;;;;14.44;49.94;98158.94;6329512;27;96459;-75
2022/04/22 02:56:19;;;;;;;;;46.00;38.00;;;;;14.45;49.95;98152.44;6316235;27;96698;-74
2022/04/22 02:59:23;;;;;;;;;45.25;36.00;;;;;14.42;50.27;98152.97;6314239;27;97476;-75
2022/04/22 03:02:27;;;;;;;;;45.80;37.00;;;;;14.43;50.03;98149.19;6331631;27;97335;-74
2022/04/22 03:05:30;;;;;;;;;45.75;38.50;;;;;14.44;50.15;98148.09;6296411;27;98275;-74
2022/04/22 03:08:34;;;;;;;;;49.00;37.80;;;;;14.47;50.12;98144.03;6311185;27;99835;-75
2022/04/22 03:11:39;;;;;;;;;45.40;36.00;;;;;14.48;49.91;98142.94;6313136;27;96618;-75
2022/04/22 03:14:44;;;;;;;;;49.60;39.00;;;;;14.48;50.03;98132.91;6321530;27;97420;-75
2022/04/22 03:17:48;;;;;;;;;43.20;35.00;;;;;14.43;50.07;98129.38;6310954;27;98970;-73
2022/04/22 03:20:53;;;;;;;;;45.00;36.20;;;;;14.35;50.22;98129.84;6337756;27;97439;-74
2022/04/22 03:23:57;;;;;;;;;44.40;37.00;;;;;14.27;50.02;98133.88;6296831;27;98660;-73
2022/04/22 03:27:01;;;;;;;;;47.00;38.00;;;;;14.22;50.25;98140.09;6337241;27;96531;-74
2022/04/22 03:30:06;;;;;;;;;47.00;37.50;;;;;14.14;50.26;98135.16;6336994;27;97010;-75
2022/04/22 03:33:09;;;;;;;;;45.80;36.80;;;;;14.04;50.36;98137.00;6313637;27;98994;-74
2022/04/22 03:36:13;;;;;;;;;45.00;36.00;;;;;13.83;50.49;98100.81;6293845;27;96868;-74
2022/04/22 03:39:16;;;;;;;;;47.00;38.00;;;;;14.01;50.76;98132.94;6313522;27;97067;-73
2022/04/22 03:42:21;;;;;;;;;46.33;36.33;;;;;13.78;50.43;98106.25;6322283;27;97238;-75
2022/04/22 03:45:24;;;;;;;;;48.00;38.00;;;;;13.88;50.63;98133.38;6295146;27;97699;-73
2022/04/22 03:48:28;;;;;;;;;47.00;38.00;;;;;13.93;50.72;98133.41;6337980;27;97263;-73
2022/04/22 03:51:31;;;;;;;;;46.80;37.40;;;;;13.99;50.97;98129.66;6319611;27;96557;-75
2022/04/22 03:54:35;;;;;;;;;46.60;37.00;;;;;14.07;50.84;98134.59;6297423;27;97620;-75
2022/04/22 04:01:01;;;;;;;;;49.00;38.00;;;;;14.09;50.86;98132.44;6318662;27;98032;-75
2022/04/22 04:04:04;;;;;;;;;49.00;38.00;;;;;14.14;50.71;98131.63;6317159;27;96678;-75
2022/04/22 04:07:08;;;;;;;;;46.60;38.00;;;;;14.21;50.72;98132.22;6278447;27;97655;-73
2022/04/22 04:16:55;;;;;;;;;45.00;36.00;;;;;14.23;50.65;98130.06;6317636;27;97547;-75
2022/04/22 04:23:19;;;;;;;;;45.00;35.75;;;;;14.30;50.44;98123.34;6286375;27;99050;-74
2022/04/22 04:26:24;;;;;;;;;48.00;37.00;;;;;14.26;50.32;98127.66;6306319;27;96983;-75
2022/04/22 04:29:29;;;;;;;;;47.00;36.00;;;;;14.39;50.16;98141.84;6293462;27;99791;-75
2022/04/22 04:32:32;;;;;;;;;46.00;36.40;;;;;14.42;50.09;98144.81;6330088;27;97000;-73
2022/04/22 04:35:37;;;;;;;;;48.60;37.00;;;;;14.37;50.16;98136.66;6324894;27;96880;-74
2022/04/22 04:38:42;;;;;;;;;45.00;36.40;;;;;14.41;50.12;98145.09;6296506;27;97295;-73
2022/04/22 04:41:45;;;;;;;;;45.60;36.00;;;;;14.44;50.18;98142.69;6317142;27;97467;-75
2022/04/22 04:44:50;;;;;;;;;42.50;34.00;;;;;14.45;50.16;98138.88;6294222;27;97785;-75
2022/04/22 04:47:54;;;;;;;;;39.20;32.60;;;;;14.53;49.97;98148.41;6328822;27;97119;-75
2022/04/22 04:50:57;;;;;;;;;42.00;35.00;;;;;14.54;50.16;98145.44;6294510;27;99498;-73
2022/04/22 04:54:00;;;;;;;;;41.60;33.60;;;;;14.57;50.14;98149.50;6337211;27;97091;-75
2022/04/22 04:57:04;;;;;;;;;43.00;35.00;;;;;14.59;50.22;98158.19;6305114;27;100405;-75
2022/04/22 05:00:11;;;;;;;;;42.00;34.00;;;;;14.11;50.65;98114.03;6340545;27;97401;-76
2022/04/22 05:03:14;;;;;;;;;40.20;32.60;;;;;14.32;51.01;98166.44;6320132;27;97852;-75
2022/04/22 05:06:17;;;;;;;;;40.50;33.00;;;;;14.36;50.98;98158.59;6321908;27;98099;-75
2022/04/22 05:09:20;;;;;;;;;39.00;32.40;;;;;14.31;51.22;98171.06;6317055;27;96450;-74
2022/04/22 05:12:24;;;;;;;;;40.25;33.00;;;;;14.31;51.46;98167.53;6322694;27;96689;-74
2022/04/22 05:15:30;;;;;;;;;41.00;33.00;;;;;14.23;51.58;98158.00;6299195;27;98313;-75
2022/04/22 05:18:33;;;;;;;;;42.00;34.00;;;;;14.38;51.54;98165.41;6301560;27;98279;-76
2022/04/22 05:21:37;;;;;;;;;37.60;32.00;;;;;14.58;51.31;98170.94;6300289;27;96789;-74
2022/04/22 05:24:40;;;;;;;;;33.00;30.00;;;;;14.67;50.83;98154.97;6298060;27;97193;-76
2022/04/22 05:27:44;;;;;;;;;40.20;33.00;;;;;14.69;50.60;98136.53;6308672;27;96707;-75
2022/04/22 05:34:10;;;;;;;;;39.60;30.60;;;;;14.92;50.43;98168.63;6302179;27;98837;-76
2022/04/22 05:37:16;;;;;;;;;39.80;32.00;;;;;14.98;50.36;98169.47;6293626;27;96644;-75
2022/04/22 05:40:21;;;;;;;;;38.20;30.80;;;;;15.10;50.15;98159.19;6309085;27;97268;-76
2022/04/22 05:43:25;;;;;;;;;34.60;28.60;;;;;15.21;49.75;98166.25;6281948;27;96943;-75
2022/04/22 05:46:29;;;;;;;;;34.20;29.80;;;;;15.27;49.62;98164.34;6293800;27;96369;-75
2022/04/22 05:49:33;;;;;;;;;31.40;29.40;;;;;15.36;49.42;98158.13;6313846;27;100116;-74
2022/04/22 05:52:38;;;;;;;;;29.00;28.00;;;;;15.40;49.45;98159.22;6315197;27;96510;-76
2022/04/22 05:55:42;;;;;;;;;34.25;28.25;;;;;15.20;49.51;98104.88;6315080;27;96523;-75
2022/04/22 05:58:46;;;;;;;;;33.60;26.80;;;;;15.55;49.14;98153.00;6305020;27;98516;-75
2022/04/22 06:01:51;;;;;;;;;32.00;28.00;;;;;15.59;48.93;98149.47;6289185;27;97245;-76
2022/04/22 06:04:54;;;;;;;;;31.00;29.00;;;;;15.67;48.64;98175.28;6287144;27;96757;-75
2022/04/22 06:11:19;;;;;;;;;29.25;26.75;;;;;15.83;48.60;98141.56;6287585;27;98680;-74
2022/04/22 06:14:23;;;;;;;;;31.00;27.00;;;;;15.85;48.61;98125.81;6287058;27;96906;-75
2022/04/22 06:17:29;;;;;;;;;29.00;27.40;;;;;16.04;48.33;98126.88;6312949;27;97634;-75
2022/04/22 06:20:33;;;;;;;;;31.00;27.40;;;;;16.17;47.83;98127.41;6322218;27;96990;-73
2022/04/22 06:23:36;;;;;;;;;29.00;25.20;;;;;16.33;47.44;98128.97;6321506;27;100078;-74
2022/04/22 06:26:39;;;;;;;;;30.00;25.40;;;;;16.40;47.58;98130.31;6321855;27;97024;-74
2022/04/22 06:29:43;;;;;;;;;29.20;26.20;;;;;16.37;47.18;98132.78;6321922;27;97519;-74
2022/04/22 06:32:50;;;;;;;;;31.40;28.00;;;;;16.46;47.02;98131.09;6339943;27;96809;-75
2022/04/22 06:35:54;;;;;;;;;26.40;24.80;;;;;16.49;47.12;98130.53;6340246;27;96667;-75
2022/04/22 06:38:58;;;;;;;;;30.60;25.60;;;;;16.59;46.94;98135.97;6312953;27;96776;-73
2022/04/22 06:48:46;;;;;;;;;34.40;27.40;;;;;16.89;46.51;98137.75;6312861;27;98074;-74
2022/04/22 06:51:50;;;;;;;;;32.00;27.50;;;;;16.96;46.64;98121.91;6313478;27;97448;-75
2022/04/22 06:54:55;;;;;;;;;34.75;27.00;;;;;17.09;46.16;98123.19;6313324;27;96525;-75
2022/04/22 06:58:01;;;;;;;;;30.00;26.80;;;;;17.05;45.95;98127.59;6320560;27;96943;-74
2022/04/22 07:01:05;;;;;;;;;29.00;26.00;;;;;17.12;45.77;98128.88;6340217;27;97442;-73
2022/04/22 07:04:30;;;;;;;;;33.00;28.00;;;;;17.03;45.72;98127.84;6320418;27;97374;-75
2022/04/22 07:07:35;;;;;;;;;34.40;27.20;;;;;16.88;45.84;98138.81;6320781;27;97080;-74
2022/04/22 07:10:39;;;;;;;;;30.40;27.60;;;;;16.81;46.05;98139.13;6338405;27;96617;-75
2022/04/22 07:13:44;;;;;;;;;35.00;30.00;;;;;16.86;46.02;98138.28;6302582;27;99078;-74
2022/04/22 07:16:48;;;;;;;;;31.40;29.40;;;;;16.87;46.13;98150.81;6297598;27;97283;-73
2022/04/22 07:19:53;;;;;;;;;34.60;29.20;;;;;16.95;46.19;98146.69;6313168;27;96689;-75
2022/04/22 07:22:59;;;;;;;;;31.00;27.00;;;;;16.94;46.09;98156.78;6313846;27;97577;-73
2022/04/22 07:26:07;;;;;;;;;36.00;30.00;;;;;17.03;46.17;98149.63;6294418;27;97077;-75
2022/04/22 07:29:14;;;;;;;;;37.00;30.60;;;;;17.12;45.97;98147.94;6293565;27;100146;-73
2022/04/22 07:32:18;;;;;;;;;33.80;30.00;;;;;17.21;45.97;98151.69;6311771;27;98210;-73
2022/04/22 07:35:24;;;;;;;;;31.60;28.60;;;;;17.21;45.37;98148.97;6294254;27;97118;-76
2022/04/22 07:38:28;;;;;;;;;29.60;28.00;;;;;17.25;45.41;98147.31;6313129;27;96858;-73
2022/04/22 07:41:36;;;;;;;;;35.20;29.80;;;;;17.22;45.62;98147.88;6320293;27;97422;-77
2022/04/22 07:48:01;;;;;;;;;36.40;32.00;;;;;17.38;45.63;98153.22;6335760;27;97049;-75
2022/04/22 07:51:09;;;;;;;;;32.40;28.00;;;;;17.48;45.47;98147.72;6315449;27;97994;-75
2022/04/22 07:54:13;;;;;;;;;34.80;30.00;;;;;17.37;45.27;98146.97;6333950;27;96668;-75
2022/04/22 07:57:16;;;;;;;;;39.25;32.00;;;;;17.31;45.24;98145.38;6310543;27;98738;-74
2022/04/22 08:00:20;;;;;;;;;35.40;30.40;;;;;17.18;45.66;98122.31;6319131;27;96987;-74
2022/04/22 08:03:23;;;;;;;;;37.00;32.00;;;;;17.40;45.46;98143.66;6303030;27;97458;-74
2022/04/22 08:06:28;;;;;;;;;40.50;33.00;;;;;17.51;45.29;98153.41;6307582;27;96591;-73
2022/04/22 08:09:31;;;;;;;;;37.00;30.60;;;;;17.61;45.50;98136.19;6318840;27;96770;-74
2022/04/22 08:12:35;;;;;;;;;37.40;30.20;;;;;17.67;45.36;98127.69;6338281;27;96395;-75
2022/04/22 08:15:39;;;;;;;;;35.20;29.80;;;;;17.77;44.87;98137.69;6338650;27;96787;-76
2022/04/22 08:18:42;;;;;;;;;33.60;28.60;;;;;17.88;44.69;98143.88;6319448;27;97804;-73
2022/04/22 08:21:47;;;;;;;;;30.40;27.40;;;;;17.66;45.01;98136.13;6319253;27;97753;-73
2022/04/22 08:24:50;;;;;;;;;35.40;29.40;;;;;17.70;45.12;98138.00;6338340;27;96571;-75
2022/04/22 08:27:54;;;;;;;;;31.50;28.50;;;;;17.88;44.92;98141.97;6338847;27;98419;-74
2022/04/22 08:30:57;;;;;;;;;33.60;28.00;;;;;17.96;44.46;98144.06;6342544;27;97028;-74
2022/04/22 08:34:00;;;;;;;;;35.00;30.00;;;;;18.03;44.80;98141.78;6341868;27;96644;-75
2022/04/22 08:37:05;;;;;;;;;35.20;31.20;;;;;18.09;44.35;98121.53;6342644;27;97235;-76
2022/04/22 08:40:09;;;;;;;;;31.00;29.20;;;;;18.38;43.96;98131.59;6323839;27;96370;-75
2022/04/22 08:43:14;;;;;;;;;32.00;29.00;;;;;18.47;43.36;98121.69;6322892;27;98433;-76
2022/04/22 08:53:03;;;;;;;;;33.00;29.40;;;;;18.54;42.99;98133.91;6342095;27;96551;-74
2022/04/22 08:56:09;;;;;;;;;41.40;32.00;;;;;18.40;43.80;98132.94;6323188;27;98064;-73
2022/04/22 08:59:12;;;;;;;;;34.60;29.60;;;;;18.48;43.35;98134.22;6323050;27;96495;-73
2022/04/22 09:02:17;;;;;;;;;31.75;28.25;;;;;18.27;43.02;98124.66;6341570;27;97756;-74
2022/04/22 09:05:21;;;;;;;;;34.00;30.00;;;;;18.18;43.64;98117.06;6322401;27;96594;-75
2022/04/22 09:08:28;;;;;;;;;32.20;28.80;;;;;17.93;43.81;98113.81;6321935;27;96814;-76
2022/04/22 09:11:32;;;;;;;;;35.00;30.00;;;;;17.83;44.70;98122.09;6341300;27;97466;-76
2022/04/22 09:14:35;;;;;;;;;37.80;31.40;;;;;17.68;44.91;98123.06;6314427;27;100090;-76
2022/04/22 09:17:39;;;;;;;;;37.00;32.00;;;;;17.98;45.39;98120.03;6289122;27;98313;-76
2022/04/22 09:20:42;;;;;;;;;32.50;29.00;;;;;18.26;44.42;98120.28;6306789;27;97142;-76
2022/04/22 09:23:47;;;;;;;;;33.75;30.00;;;;;18.29;43.98;98125.97;6289564;27;97318;-76
2022/04/22 09:27:04;;;;;;;;;33.50;27.50;;;;;18.24;43.92;98119.75;6290874;27;98367;-75
2022/04/22 09:30:09;;;;;;;;;36.80;30.20;;;;;18.07;44.01;98118.31;6309163;27;96625;-74
2022/04/22 09:33:13;;;;;;;;;34.20;30.00;;;;;17.96;44.16;98108.59;6307588;27;98128;-74
2022/04/22 09:43:03;;;;;;;;;32.80;29.40;;;;;18.37;43.96;98114.44;6313143;27;97135;-75
2022/04/22 09:46:07;;;;;;;;;32.40;29.80;;;;;18.54;43.17;98112.06;6315058;27;98134;-74
2022/04/22 09:49:11;;;;;;;;;32.50;27.00;;;;;18.52;42.85;98110.72;6313807;27;100168;-74
2022/04/22 09:52:14;;;;;;;;;32.00;27.75;;;;;18.62;42.83;98107.06;6296480;27;97751;-74
2022/04/22 09:55:22;;;;;;;;;27.00;24.00;;;;;18.60;42.88;98127.28;6315284;27;96396;-75
2022/04/22 09:58:27;;;;;;;;;25.60;24.60;;;;;18.57;42.79;98127.03;6296764;27;98272;-73
2022/04/22 10:01:30;;;;;;;;;31.75;27.75;;;;;18.78;42.96;98133.88;6313838;27;96705;-76
2022/04/22 10:04:53;;;;;;;;;26.40;23.60;;;;;18.74;42.64;98121.09;6311413;27;97192;-74
2022/04/22 10:08:00;;;;;;;;;27.80;23.00;;;;;18.78;42.47;98139.31;6298382;27;97335;-72
2022/04/22 10:11:25;;;;;;;;;27.60;24.00;;;;;18.38;42.96;98139.78;6303616;27;96705;-75
2022/04/22 10:14:36;;;;;;;;;27.50;26.00;;;;;18.11;43.61;98140.38;6302365;27;98374;-73
2022/04/22 10:17:40;;;;;;;;;28.00;25.00;;;;;18.16;43.62;98141.13;6282316;27;98109;-72
2022/04/22 10:20:44;;;;;;;;;25.80;23.80;;;;;18.10;43.68;98149.63;6286766;27;98542;-75
2022/04/22 10:23:50;;;;;;;;;25.60;22.60;;;;;17.90;43.89;98152.56;6307555;27;97859;-72
2022/04/22 10:26:55;;;;;;;;;25.80;23.20;;;;;17.96;44.29;98157.69;6309403;27;96913;-76
2022/04/22 10:29:59;;;;;;;;;24.00;22.00;;;;;17.59;44.58;98154.75;6303976;27;97222;-75
2022/04/22 10:33:03;;;;;;;;;27.00;23.60;;;;;17.54;44.78;98139.22;6302539;27;97398;-70
2022/04/22 10:36:07;;;;;;;;;24.00;22.25;;;;;17.59;44.80;98150.09;6308926;27;96765;-75
2022/04/22 10:39:11;;;;;;;;;27.50;24.25;;;;;17.52;44.91;98137.88;6297440;27;96830;-73
2022/04/22 10:42:17;;;;;;;;;25.50;23.50;;;;;17.64;44.85;98141.88;6301096;27;97493;-73
2022/04/22 10:49:14;;;;;;;;;26.40;22.80;;;;;17.82;44.51;98134.91;6290430;27;98242;-74
2022/04/22 10:52:19;;;;;;;;;29.00;23.75;;;;;17.64;44.47;98130.97;6311690;27;96695;-72
2022/04/22 10:55:22;;;;;;;;;22.25;20.00;;;;;17.55;44.89;98115.47;6304488;27;96689;-74
2022/04/22 10:58:27;;;;;;;;;28.60;22.00;;;;;17.69;44.87;98132.88;6301176;27;98153;-74
2022/04/22 11:01:31;;;;;;;;;22.00;18.00;;;;;17.64;44.94;98122.00;6306385;27;96571;-69
2022/04/22 11:04:36;;;;;;;;;28.40;24.00;;;;;17.98;44.11;98122.78;6301831;27;98819;-70
2022/04/22 11:07:55;;;;;;;;;22.25;20.00;;;;;18.49;43.74;98112.09;6309197;27;96567;-71
2022/04/22 11:11:19;;;;;;;;;22.80;20.00;;;;;18.72;43.00;98106.91;6290285;27;98174;-72
2022/04/22 11:14:26;;;;;;;;;25.40;22.40;;;;;18.76;42.71;98102.50;6303156;27;97474;-72
2022/04/22 11:17:34;;;;;;;;;31.80;23.20;;;;;18.72;42.38;98094.06;6288899;27;97916;-74
2022/04/22 11:20:38;;;;;;;;;25.00;22.20;;;;;19.00;42.48;98106.00;6282977;27;97778;-74
2022/04/22 11:23:44;;;;;;;;;26.00;21.00;;;;;19.39;41.48;98098.28;6303984;27;97176;-74
2022/04/22 11:26:48;;;;;;;;;26.00;22.20;;;;;19.37;40.69;98083.28;6303248;27;96868;-76
2022/04/22 11:29:53;;;;;;;;;24.40;22.00;;;;;19.49;40.88;98099.28;6302347;27;97305;-73
2022/04/22 11:33:12;;;;;;;;;23.00;18.00;;;;;19.33;40.95;98099.47;6292575;27;98811;-75
2022/04/22 11:36:16;;;;;;;;;23.40;22.00;;;;;19.40;40.29;98102.63;6312465;27;96568;-71
2022/04/22 11:39:23;;;;;;;;;24.50;21.00;;;;;19.42;40.78;98096.88;6287947;27;97087;-74
2022/04/22 11:42:27;;;;;;;;;27.00;22.60;;;;;19.17;41.39;98100.81;6298643;27;97083;-75
2022/04/22 11:45:51;;;;;;;;;22.50;20.50;;;;;19.15;41.28;98096.78;6317967;27;96783;-77
2022/04/22 11:48:54;;;;;;;;;19.67;16.00;;;;;19.25;40.54;98086.50;6302407;27;97177;-74
2022/04/22 11:51:57;;;;;;;;;20.40;16.00;;;;;19.74;40.34;98093.38;6297430;27;97760;-76
2022/04/22 11:55:01;;;;;;;;;19.00;16.00;;;;;19.89;39.81;98084.88;6308228;27;97294;-74
2022/04/22 11:58:05;;;;;;;;;18.00;16.00;;;;;19.91;39.77;98074.44;6298447;27;97631;-72
2022/04/22 12:08:05;;;;;;;;;17.00;13.00;;;;;19.89;39.43;98060.25;6300206;27;97117;-75
2022/04/22 12:11:16;;;;;;;;;16.60;13.00;;;;;19.98;39.43;98072.16;6290660;27;96547;-72
2022/04/22 12:14:24;;;;;;;;;16.00;13.00;;;;;19.90;38.67;98062.69;6297939;27;97192;-73
2022/04/22 12:17:30;;;;;;;;;13.00;12.00;;;;;19.94;38.80;98057.41;6320254;27;96762;-76
2022/04/22 12:20:33;;;;;;;;;14.40;13.40;;;;;19.17;39.15;97949.72;6334806;27;97416;-74
2022/04/22 12:23:39;;;;;;;;;16.00;12.60;;;;;19.44;39.00;98029.09;6333567;27;96512;-74
2022/04/22 12:26:45;;;;;;;;;17.00;15.50;;;;;19.78;38.98;98061.56;6283489;27;97230;-77
2022/04/22 12:30:00;;;;;;;;;16.40;11.40;;;;;19.61;39.16;98050.38;6343070;27;97000;-78
2022/04/22 12:33:05;;;;;;;;;12.50;11.00;;;;;19.58;39.10;98057.28;6319047;27;96717;-71
2022/04/22 12:36:10;;;;;;;;;15.40;13.00;;;;;19.31;39.67;98052.50;6321776;27;97218;-72
2022/04/22 12:39:33;;;;;;;;;13.00;12.00;;;;;19.23;39.62;98046.91;6296179;27;97573;-76
2022/04/22 12:42:39;;;;;;;;;12.00;11.00;;;;;19.41;39.13;98048.78;6296459;27;97983;-76
2022/04/22 12:52:33;;;;;;;;;15.60;13.00;;;;;19.64;38.80;98026.00;6333790;27;97385;-78
2022/04/22 12:55:37;;;;;;;;;15.00;12.60;;;;;19.67;38.44;98041.78;6314106;27;97563;-76
2022/04/22 12:58:51;;;;;;;;;15.40;14.40;;;;;19.42;38.96;98043.03;6310207;27;98453;-75
2022/04/22 13:01:54;;;;;;;;;15.50;13.50;;;;;19.48;38.85;98042.97;6318133;27;96478;-75
2022/04/22 13:05:01;;;;;;;;;17.00;14.00;;;;;19.02;39.13;98039.03;6306400;27;99530;-76
2022/04/22 13:08:10;;;;;;;;;15.25;12.25;;;;;18.91;40.23;98047.69;6324902;27;96929;-76
2022/04/22 13:11:13;;;;;;;;;22.00;19.00;;;;;18.79;40.90;98047.31;6304273;27;97958;-75
2022/04/22 13:14:17;;;;;;;;;24.00;21.00;;;;;18.60;41.92;98047.28;6328510;27;97160;-75
2022/04/22 13:17:22;;;;;;;;;28.00;22.75;;;;;18.37;42.63;98045.41;6312725;27;99656;-77
2022/04/22 13:20:27;;;;;;;;;29.25;25.25;;;;;18.06;43.49;98034.03;6321060;27;97486;-75
2022/04/22 13:23:31;;;;;;;;;23.80;20.00;;;;;17.83;44.06;98032.13;6331912;27;96592;-75
2022/04/22 13:26:35;;;;;;;;;26.40;22.00;;;;;17.68;45.17;98033.91;6332632;27;97528;-75
2022/04/22 13:29:40;;;;;;;;;23.25;19.25;;;;;17.74;45.46;98035.47;6328229;27;97507;-74
2022/04/22 13:32:44;;;;;;;;;19.75;16.75;;;;;17.42;46.29;98031.69;6307041;27;98424;-76
2022/04/22 13:35:48;;;;;;;;;21.60;20.60;;;;;17.43;45.98;98047.75;6321300;27;97471;-74
2022/04/22 13:38:52;;;;;;;;;23.80;19.80;;;;;17.30;46.62;98049.19;6323531;27;97362;-73
2022/04/22 13:41:55;;;;;;;;;24.50;22.00;;;;;17.04;46.71;98050.53;6329215;27;96925;-74
2022/04/22 13:55:02;;;;;;;;;27.00;24.00;;;;;16.49;47.01;98008.09;6307546;27;96847;-73
2022/04/22 13:58:05;;;;;;;;;27.50;22.50;;;;;16.64;47.46;98061.66;6323521;27;97741;-75
2022/04/22 14:01:09;;;;;;;;;29.60;22.00;;;;;16.37;47.99;98062.06;6324447;27;96780;-72
2022/04/22 14:04:12;;;;;;;;;28.00;23.20;;;;;16.22;48.22;98070.28;6322785;27;97078;-71
2022/04/22 14:07:17;;;;;;;;;26.00;24.00;;;;;15.80;49.13;98076.91;6317371;27;96721;-75
2022/04/22 14:10:21;;;;;;;;;26.00;23.00;;;;;15.39;50.43;98073.41;6305259;27;97441;-72
2022/04/22 14:13:26;;;;;;;;;28.75;24.00;;;;;15.32;50.39;98075.56;6290772;27;96750;-75
2022/04/22 14:16:30;;;;;;;;;28.00;22.00;;;;;15.34;50.14;98078.03;6319586;27;97316;-73
2022/04/22 14:19:33;;;;;;;;;23.00;20.60;;;;;15.04;50.66;98047.06;6336294;27;96488;-75
2022/04/22 14:22:38;;;;;;;;;24.60;21.60;;;;;15.19;50.77;98059.81;6303336;27;98349;-73
2022/04/22 14:25:41;;;;;;;;;22.75;19.75;;;;;14.99;51.58;98079.63;6316332;27;96410;-72
2022/04/22 14:28:46;;;;;;;;;23.00;19.00;;;;;14.87;51.87;98076.34;6336380;27;98263;-73
2022/04/22 14:31:49;;;;;;;;;19.75;18.00;;;;;14.50;52.75;98067.56;6316973;27;96315;-70
2022/04/22 14:34:53;;;;;;;;;23.00;21.00;;;;;14.61;52.18;98074.66;6307428;27;97438;-67
2022/04/22 14:37:58;;;;;;;;;21.50;19.00;;;;;14.55;52.69;98081.16;6325791;27;96821;-71
2022/04/22 14:41:02;;;;;;;;;18.40;16.00;;;;;14.59;52.26;98088.50;6297401;27;99037;-70
2022/04/22 14:44:05;;;;;;;;;19.40;17.00;;;;;14.64;52.59;98076.84;6336316;27;97757;-69
2022/04/22 14:47:12;;;;;;;;;19.20;17.20;;;;;14.64;52.45;98076.84;6294705;27;97203;-72
2022/04/22 14:50:16;;;;;;;;;22.00;18.00;;;;;14.46;52.93;98075.44;6303715;27;98427;-74
2022/04/22 14:53:21;;;;;;;;;19.25;18.00;;;;;14.36;53.51;98085.41;6318106;27;98846;-73
2022/04/22 14:56:24;;;;;;;;;17.40;14.60;;;;;14.37;53.56;98079.72;6318569;27;99445;-73
2022/04/22 14:59:47;;;;;;;;;17.20;15.80;;;;;14.30;53.29;98082.66;6329451;27;96841;-71
2022/04/22 15:02:50;;;;;;;;;16.00;14.00;;;;;14.21;53.40;98091.56;6315444;27;97135;-73
2022/04/22 15:05:54;;;;;;;;;18.40;17.00;;;;;14.07;53.80;98083.09;6281360;27;98497;-72
2022/04/22 15:08:58;;;;;;;;;18.00;15.00;;;;;14.10;53.52;98087.16;6294532;27;96602;-70
2022/04/22 15:12:02;;;;;;;;;19.00;17.00;;;;;13.89;54.00;98083.53;6297809;27;98648;-74
2022/04/22 15:15:06;;;;;;;;;16.00;14.00;;;;;13.95;53.80;98074.38;6315990;27;96687;-71
2022/04/22 15:24:53;;;;;;;;;11.00;10.00;;;;;13.86;54.11;98070.53;6302645;27;98187;-73
2022/04/22 15:27:56;;;;;;;;;11.00;10.00;;;;;13.74;54.08;98059.88;6297652;27;97467;-73
2022/04/22 15:31:12;;;;;;;;;11.00;10.00;;;;;13.78;54.12;98074.53;6299046;27;97112;-73
2022/04/22 15:34:18;;;;;;;;;11.00;9.50;;;;;13.60;54.53;98077.66;6297745;27;98847;-72
2022/04/22 15:37:22;;;;;;;;;11.00;10.00;;;;;13.71;54.03;98070.44;6301531;27;96690;-74
2022/04/22 15:40:26;;;;;;;;;11.00;10.00;;;;;13.56;54.46;98079.28;6296140;27;97809;-71
2022/04/22 15:43:30;;;;;;;;;11.40;10.00;;;;;13.53;54.64;98082.50;6299357;27;96817;-75